sensor_id;sensor_type;location;lat;lon;timestamp;P1;durP1;ratioP1;P2;durP2;ratioP2
69989;SDS011;57331;52.054;5.294;2022-09-30T00:01:22;9.07;;;3.53;;
69989;SDS011;57331;52.054;5.294;2022-09-30T00:03:53;6.47;;;3.17;;
69989;SDS011;57331;52.054;5.294;2022-09-30T00:06:21;10.18;;;4.43;;
69989;SDS011;57331;52.054;5.294;2022-09-30T00:08:49;9.77;;;4.75;;
69989;SDS011;57331;52.054;5.294;2022-09-30T00:11:17;15.40;;;4.28;;
69989;SDS011;57331;52.054;5.294;2022-09-30T00:13:47;9.32;;;4.00;;
69989;SDS011;57331;52.054;5.294;2022-09-30T00:16:16;9.03;;;3.60;;
69989;SDS011;57331;52.054;5.294;2022-09-30T00:18:46;8.82;;;3.55;;
69989;SDS011;57331;52.054;5.294;2022-09-30T00:21:14;11.50;;;3.75;;
69989;SDS011;57331;52.054;5.294;2022-09-30T00:23:42;8.70;;;3.63;;
69989;SDS011;57331;52.054;5.294;2022-09-30T00:26:11;7.50;;;3.40;;
69989;SDS011;57331;52.054;5.294;2022-09-30T00:28:43;12.70;;;3.33;;
69989;SDS011;57331;52.054;5.294;2022-09-30T00:31:12;8.77;;;3.47;;
69989;SDS011;57331;52.054;5.294;2022-09-30T00:33:41;6.97;;;3.28;;
69989;SDS011;57331;52.054;5.294;2022-09-30T00:36:09;9.13;;;3.20;;
69989;SDS011;57331;52.054;5.294;2022-09-30T00:38:36;7.22;;;3.20;;
69989;SDS011;57331;52.054;5.294;2022-09-30T00:41:03;6.67;;;2.83;;
69989;SDS011;57331;52.054;5.294;2022-09-30T00:43:37;6.75;;;3.00;;
69989;SDS011;57331;52.054;5.294;2022-09-30T00:49:14;6.88;;;3.08;;
69989;SDS011;57331;52.054;5.294;2022-09-30T00:51:47;7.50;;;3.08;;
69989;SDS011;57331;52.054;5.294;2022-09-30T00:54:22;8.60;;;2.80;;
69989;SDS011;57331;52.054;5.294;2022-09-30T00:56:56;5.32;;;2.40;;
69989;SDS011;57331;52.054;5.294;2022-09-30T00:59:46;9.43;;;2.60;;
69989;SDS011;57331;52.054;5.294;2022-09-30T01:02:15;6.57;;;2.72;;
69989;SDS011;57331;52.054;5.294;2022-09-30T01:04:42;6.70;;;2.50;;
69989;SDS011;57331;52.054;5.294;2022-09-30T01:07:11;9.33;;;2.70;;
69989;SDS011;57331;52.054;5.294;2022-09-30T01:09:40;7.15;;;2.75;;
69989;SDS011;57331;52.054;5.294;2022-09-30T01:12:09;8.13;;;3.00;;
69989;SDS011;57331;52.054;5.294;2022-09-30T01:14:40;5.80;;;2.50;;
69989;SDS011;57331;52.054;5.294;2022-09-30T01:28:42;7.68;;;2.50;;
69989;SDS011;57331;52.054;5.294;2022-09-30T01:34:11;8.73;;;3.00;;
69989;SDS011;57331;52.054;5.294;2022-09-30T01:42:25;7.43;;;2.65;;
69989;SDS011;57331;52.054;5.294;2022-09-30T01:45:31;6.40;;;2.83;;
69989;SDS011;57331;52.054;5.294;2022-09-30T01:48:07;7.20;;;3.00;;
69989;SDS011;57331;52.054;5.294;2022-09-30T01:50:41;7.88;;;2.90;;
69989;SDS011;57331;52.054;5.294;2022-09-30T01:56:05;8.38;;;2.50;;
69989;SDS011;57331;52.054;5.294;2022-09-30T01:59:00;7.70;;;2.78;;
69989;SDS011;57331;52.054;5.294;2022-09-30T02:01:40;5.90;;;2.60;;
69989;SDS011;57331;52.054;5.294;2022-09-30T02:04:18;9.15;;;2.70;;
69989;SDS011;57331;52.054;5.294;2022-09-30T02:07:08;7.35;;;2.53;;
69989;SDS011;57331;52.054;5.294;2022-09-30T02:09:40;6.72;;;2.70;;
69989;SDS011;57331;52.054;5.294;2022-09-30T02:12:15;7.03;;;2.78;;
69989;SDS011;57331;52.054;5.294;2022-09-30T02:14:49;6.50;;;2.30;;
69989;SDS011;57331;52.054;5.294;2022-09-30T02:17:24;7.28;;;2.53;;
69989;SDS011;57331;52.054;5.294;2022-09-30T02:20:02;7.68;;;3.10;;
69989;SDS011;57331;52.054;5.294;2022-09-30T02:22:44;5.85;;;2.75;;
69989;SDS011;57331;52.054;5.294;2022-09-30T02:25:18;6.28;;;2.60;;
69989;SDS011;57331;52.054;5.294;2022-09-30T02:27:54;12.83;;;3.13;;
69989;SDS011;57331;52.054;5.294;2022-09-30T02:30:24;7.90;;;3.28;;
69989;SDS011;57331;52.054;5.294;2022-09-30T02:32:57;10.27;;;3.13;;
69989;SDS011;57331;52.054;5.294;2022-09-30T02:35:31;5.00;;;2.33;;
69989;SDS011;57331;52.054;5.294;2022-09-30T02:38:04;7.13;;;2.83;;
69989;SDS011;57331;52.054;5.294;2022-09-30T02:41:03;9.70;;;2.97;;
69989;SDS011;57331;52.054;5.294;2022-09-30T02:43:37;13.00;;;3.10;;
69989;SDS011;57331;52.054;5.294;2022-09-30T02:46:09;8.02;;;3.10;;
69989;SDS011;57331;52.054;5.294;2022-09-30T02:51:32;7.25;;;3.25;;
69989;SDS011;57331;52.054;5.294;2022-09-30T02:54:51;7.23;;;3.27;;
69989;SDS011;57331;52.054;5.294;2022-09-30T02:59:30;7.60;;;3.28;;
69989;SDS011;57331;52.054;5.294;2022-09-30T03:01:57;7.78;;;3.38;;
69989;SDS011;57331;52.054;5.294;2022-09-30T03:04:25;12.18;;;2.97;;
69989;SDS011;57331;52.054;5.294;2022-09-30T03:06:55;7.13;;;3.10;;
69989;SDS011;57331;52.054;5.294;2022-09-30T03:09:25;6.45;;;2.50;;
69989;SDS011;57331;52.054;5.294;2022-09-30T03:11:54;7.35;;;3.30;;
69989;SDS011;57331;52.054;5.294;2022-09-30T03:14:36;12.10;;;3.40;;
69989;SDS011;57331;52.054;5.294;2022-09-30T03:19:59;6.43;;;2.90;;
69989;SDS011;57331;52.054;5.294;2022-09-30T03:28:14;6.15;;;2.60;;
69989;SDS011;57331;52.054;5.294;2022-09-30T03:31:31;6.75;;;3.17;;
69989;SDS011;57331;52.054;5.294;2022-09-30T03:33:53;10.80;;;3.00;;
69989;SDS011;57331;52.054;5.294;2022-09-30T03:36:37;6.72;;;2.80;;
69989;SDS011;57331;52.054;5.294;2022-09-30T03:39:21;8.63;;;3.30;;
69989;SDS011;57331;52.054;5.294;2022-09-30T03:42:54;7.70;;;3.72;;
69989;SDS011;57331;52.054;5.294;2022-09-30T03:45:05;6.25;;;2.78;;
69989;SDS011;57331;52.054;5.294;2022-09-30T03:47:50;6.50;;;3.07;;
69989;SDS011;57331;52.054;5.294;2022-09-30T03:50:21;8.10;;;3.08;;
69989;SDS011;57331;52.054;5.294;2022-09-30T03:52:50;8.10;;;3.20;;
69989;SDS011;57331;52.054;5.294;2022-09-30T03:55:18;10.70;;;3.40;;
69989;SDS011;57331;52.054;5.294;2022-09-30T03:57:47;6.57;;;2.97;;
69989;SDS011;57331;52.054;5.294;2022-09-30T04:00:15;8.73;;;2.93;;
69989;SDS011;57331;52.054;5.294;2022-09-30T04:02:42;7.68;;;3.33;;
69989;SDS011;57331;52.054;5.294;2022-09-30T04:05:11;7.45;;;2.88;;
69989;SDS011;57331;52.054;5.294;2022-09-30T04:07:38;8.50;;;3.20;;
69989;SDS011;57331;52.054;5.294;2022-09-30T04:10:05;6.90;;;3.13;;
69989;SDS011;57331;52.054;5.294;2022-09-30T04:12:33;6.70;;;3.03;;
69989;SDS011;57331;52.054;5.294;2022-09-30T04:15:00;6.10;;;3.10;;
69989;SDS011;57331;52.054;5.294;2022-09-30T04:17:27;8.82;;;3.85;;
69989;SDS011;57331;52.054;5.294;2022-09-30T04:19:54;8.02;;;3.28;;
69989;SDS011;57331;52.054;5.294;2022-09-30T04:22:22;17.52;;;5.90;;
69989;SDS011;57331;52.054;5.294;2022-09-30T04:24:51;9.67;;;4.07;;
69989;SDS011;57331;52.054;5.294;2022-09-30T04:27:18;7.55;;;3.38;;
69989;SDS011;57331;52.054;5.294;2022-09-30T04:29:46;7.30;;;3.53;;
69989;SDS011;57331;52.054;5.294;2022-09-30T04:32:13;7.90;;;3.70;;
69989;SDS011;57331;52.054;5.294;2022-09-30T04:34:40;7.85;;;3.90;;
69989;SDS011;57331;52.054;5.294;2022-09-30T04:37:07;8.30;;;3.07;;
69989;SDS011;57331;52.054;5.294;2022-09-30T04:39:36;7.78;;;3.35;;
69989;SDS011;57331;52.054;5.294;2022-09-30T04:42:03;9.25;;;3.80;;
69989;SDS011;57331;52.054;5.294;2022-09-30T04:44:31;8.88;;;3.20;;
69989;SDS011;57331;52.054;5.294;2022-09-30T04:47:00;8.40;;;3.78;;
69989;SDS011;57331;52.054;5.294;2022-09-30T04:49:27;10.43;;;3.60;;
69989;SDS011;57331;52.054;5.294;2022-09-30T04:51:55;7.35;;;3.03;;
69989;SDS011;57331;52.054;5.294;2022-09-30T04:54:22;6.82;;;3.10;;
69989;SDS011;57331;52.054;5.294;2022-09-30T04:56:49;7.70;;;3.40;;
69989;SDS011;57331;52.054;5.294;2022-09-30T04:59:17;11.18;;;3.60;;
69989;SDS011;57331;52.054;5.294;2022-09-30T05:01:44;6.77;;;3.07;;
69989;SDS011;57331;52.054;5.294;2022-09-30T05:04:11;7.32;;;3.40;;
69989;SDS011;57331;52.054;5.294;2022-09-30T05:06:38;7.78;;;3.65;;
69989;SDS011;57331;52.054;5.294;2022-09-30T05:09:06;7.20;;;3.42;;
69989;SDS011;57331;52.054;5.294;2022-09-30T05:11:33;8.93;;;3.30;;
69989;SDS011;57331;52.054;5.294;2022-09-30T05:14:05;10.87;;;3.23;;
69989;SDS011;57331;52.054;5.294;2022-09-30T05:16:34;13.73;;;3.47;;
69989;SDS011;57331;52.054;5.294;2022-09-30T05:19:02;8.25;;;3.55;;
69989;SDS011;57331;52.054;5.294;2022-09-30T05:21:29;7.25;;;3.30;;
69989;SDS011;57331;52.054;5.294;2022-09-30T05:23:56;8.05;;;3.60;;
69989;SDS011;57331;52.054;5.294;2022-09-30T05:26:23;6.63;;;2.77;;
69989;SDS011;57331;52.054;5.294;2022-09-30T05:28:51;10.43;;;3.95;;
69989;SDS011;57331;52.054;5.294;2022-09-30T05:31:18;10.68;;;3.50;;
69989;SDS011;57331;52.054;5.294;2022-09-30T05:33:46;9.32;;;3.85;;
69989;SDS011;57331;52.054;5.294;2022-09-30T05:36:13;7.47;;;3.33;;
69989;SDS011;57331;52.054;5.294;2022-09-30T05:38:41;10.73;;;3.47;;
69989;SDS011;57331;52.054;5.294;2022-09-30T05:41:09;8.50;;;3.45;;
69989;SDS011;57331;52.054;5.294;2022-09-30T05:43:39;6.78;;;3.10;;
69989;SDS011;57331;52.054;5.294;2022-09-30T05:46:06;8.43;;;3.65;;
69989;SDS011;57331;52.054;5.294;2022-09-30T05:48:33;7.63;;;3.40;;
69989;SDS011;57331;52.054;5.294;2022-09-30T05:51:01;22.90;;;8.57;;
69989;SDS011;57331;52.054;5.294;2022-09-30T05:53:28;20.40;;;9.18;;
69989;SDS011;57331;52.054;5.294;2022-09-30T05:55:57;11.48;;;5.00;;
69989;SDS011;57331;52.054;5.294;2022-09-30T05:58:25;9.38;;;4.18;;
69989;SDS011;57331;52.054;5.294;2022-09-30T06:00:53;8.98;;;4.45;;
69989;SDS011;57331;52.054;5.294;2022-09-30T06:03:20;10.00;;;4.60;;
69989;SDS011;57331;52.054;5.294;2022-09-30T06:05:48;12.38;;;4.53;;
69989;SDS011;57331;52.054;5.294;2022-09-30T06:08:21;12.40;;;4.53;;
69989;SDS011;57331;52.054;5.294;2022-09-30T06:10:49;10.15;;;4.45;;
69989;SDS011;57331;52.054;5.294;2022-09-30T06:13:16;9.82;;;4.43;;
69989;SDS011;57331;52.054;5.294;2022-09-30T06:15:43;13.57;;;5.43;;
69989;SDS011;57331;52.054;5.294;2022-09-30T06:18:12;10.15;;;5.00;;
69989;SDS011;57331;52.054;5.294;2022-09-30T06:20:43;17.17;;;5.43;;
69989;SDS011;57331;52.054;5.294;2022-09-30T06:23:10;12.07;;;5.68;;
69989;SDS011;57331;52.054;5.294;2022-09-30T06:25:37;11.63;;;5.45;;
69989;SDS011;57331;52.054;5.294;2022-09-30T06:28:04;15.67;;;5.67;;
69989;SDS011;57331;52.054;5.294;2022-09-30T06:30:32;14.32;;;5.05;;
69989;SDS011;57331;52.054;5.294;2022-09-30T06:33:00;13.68;;;6.07;;
69989;SDS011;57331;52.054;5.294;2022-09-30T06:35:27;11.48;;;5.80;;
69989;SDS011;57331;52.054;5.294;2022-09-30T06:37:54;14.38;;;5.25;;
69989;SDS011;57331;52.054;5.294;2022-09-30T06:40:22;13.67;;;6.30;;
69989;SDS011;57331;52.054;5.294;2022-09-30T06:42:50;10.80;;;5.13;;
69989;SDS011;57331;52.054;5.294;2022-09-30T06:45:17;13.50;;;6.70;;
69989;SDS011;57331;52.054;5.294;2022-09-30T06:47:58;13.75;;;5.45;;
69989;SDS011;57331;52.054;5.294;2022-09-30T06:50:27;14.80;;;6.55;;
69989;SDS011;57331;52.054;5.294;2022-09-30T06:53:01;18.17;;;6.83;;
69989;SDS011;57331;52.054;5.294;2022-09-30T06:55:31;13.05;;;7.53;;
69989;SDS011;57331;52.054;5.294;2022-09-30T06:58:01;17.17;;;8.02;;
69989;SDS011;57331;52.054;5.294;2022-09-30T07:00:29;16.45;;;7.60;;
69989;SDS011;57331;52.054;5.294;2022-09-30T07:02:56;16.90;;;8.60;;
69989;SDS011;57331;52.054;5.294;2022-09-30T07:05:23;17.20;;;8.97;;
69989;SDS011;57331;52.054;5.294;2022-09-30T07:07:52;16.88;;;8.82;;
69989;SDS011;57331;52.054;5.294;2022-09-30T07:10:19;20.25;;;9.95;;
69989;SDS011;57331;52.054;5.294;2022-09-30T07:12:50;23.98;;;10.10;;
69989;SDS011;57331;52.054;5.294;2022-09-30T07:15:18;19.30;;;10.45;;
69989;SDS011;57331;52.054;5.294;2022-09-30T07:17:54;20.80;;;11.70;;
69989;SDS011;57331;52.054;5.294;2022-09-30T07:20:22;19.92;;;11.32;;
69989;SDS011;57331;52.054;5.294;2022-09-30T07:22:49;24.05;;;13.32;;
69989;SDS011;57331;52.054;5.294;2022-09-30T07:25:16;24.15;;;12.32;;
69989;SDS011;57331;52.054;5.294;2022-09-30T07:27:43;25.35;;;12.52;;
69989;SDS011;57331;52.054;5.294;2022-09-30T07:30:11;23.97;;;12.40;;
69989;SDS011;57331;52.054;5.294;2022-09-30T07:32:49;25.23;;;13.68;;
69989;SDS011;57331;52.054;5.294;2022-09-30T07:35:17;28.27;;;14.27;;
69989;SDS011;57331;52.054;5.294;2022-09-30T07:37:44;25.08;;;14.13;;
69989;SDS011;57331;52.054;5.294;2022-09-30T07:40:11;23.73;;;14.23;;
69989;SDS011;57331;52.054;5.294;2022-09-30T07:42:40;29.27;;;15.07;;
69989;SDS011;57331;52.054;5.294;2022-09-30T07:45:11;30.50;;;15.38;;
69989;SDS011;57331;52.054;5.294;2022-09-30T07:47:42;30.30;;;15.13;;
69989;SDS011;57331;52.054;5.294;2022-09-30T07:50:09;30.00;;;14.75;;
69989;SDS011;57331;52.054;5.294;2022-09-30T07:52:40;28.83;;;16.48;;
69989;SDS011;57331;52.054;5.294;2022-09-30T07:55:08;25.97;;;13.03;;
69989;SDS011;57331;52.054;5.294;2022-09-30T07:57:35;27.10;;;14.77;;
69989;SDS011;57331;52.054;5.294;2022-09-30T08:00:02;27.80;;;14.35;;
69989;SDS011;57331;52.054;5.294;2022-09-30T08:02:50;24.25;;;14.30;;
69989;SDS011;57331;52.054;5.294;2022-09-30T08:05:17;23.27;;;13.98;;
69989;SDS011;57331;52.054;5.294;2022-09-30T08:07:44;28.27;;;14.20;;
69989;SDS011;57331;52.054;5.294;2022-09-30T08:10:12;32.22;;;15.05;;
69989;SDS011;57331;52.054;5.294;2022-09-30T08:12:39;31.65;;;15.52;;
69989;SDS011;57331;52.054;5.294;2022-09-30T08:15:06;24.65;;;14.65;;
69989;SDS011;57331;52.054;5.294;2022-09-30T08:17:35;26.02;;;14.85;;
69989;SDS011;57331;52.054;5.294;2022-09-30T08:20:02;22.30;;;12.47;;
69989;SDS011;57331;52.054;5.294;2022-09-30T08:22:32;24.33;;;14.13;;
69989;SDS011;57331;52.054;5.294;2022-09-30T08:25:00;24.02;;;14.35;;
69989;SDS011;57331;52.054;5.294;2022-09-30T08:27:27;24.73;;;14.20;;
69989;SDS011;57331;52.054;5.294;2022-09-30T08:29:54;25.00;;;14.57;;
69989;SDS011;57331;52.054;5.294;2022-09-30T08:32:29;24.93;;;13.60;;
69989;SDS011;57331;52.054;5.294;2022-09-30T08:34:57;26.85;;;14.43;;
69989;SDS011;57331;52.054;5.294;2022-09-30T08:37:24;25.85;;;15.13;;
69989;SDS011;57331;52.054;5.294;2022-09-30T08:39:51;24.50;;;14.82;;
69989;SDS011;57331;52.054;5.294;2022-09-30T08:45:11;23.33;;;14.40;;
69989;SDS011;57331;52.054;5.294;2022-09-30T08:53:01;26.20;;;16.80;;
69989;SDS011;57331;52.054;5.294;2022-09-30T08:55:34;30.45;;;15.70;;
69989;SDS011;57331;52.054;5.294;2022-09-30T08:58:06;25.23;;;14.97;;
69989;SDS011;57331;52.054;5.294;2022-09-30T09:00:49;25.58;;;15.02;;
69989;SDS011;57331;52.054;5.294;2022-09-30T09:03:20;22.95;;;13.93;;
69989;SDS011;57331;52.054;5.294;2022-09-30T09:11:24;24.23;;;13.33;;
69989;SDS011;57331;52.054;5.294;2022-09-30T09:17:25;23.05;;;13.18;;
69989;SDS011;57331;52.054;5.294;2022-09-30T09:20:36;19.85;;;11.35;;
69989;SDS011;57331;52.054;5.294;2022-09-30T09:23:08;14.88;;;9.25;;
69989;SDS011;57331;52.054;5.294;2022-09-30T09:25:38;17.80;;;10.07;;
69989;SDS011;57331;52.054;5.294;2022-09-30T09:28:12;17.02;;;9.93;;
69989;SDS011;57331;52.054;5.294;2022-09-30T09:30:47;15.32;;;9.65;;
69989;SDS011;57331;52.054;5.294;2022-09-30T09:33:19;14.90;;;9.27;;
69989;SDS011;57331;52.054;5.294;2022-09-30T09:35:53;14.05;;;8.25;;
69989;SDS011;57331;52.054;5.294;2022-09-30T09:38:52;15.20;;;8.23;;
69989;SDS011;57331;52.054;5.294;2022-09-30T09:41:27;10.82;;;6.55;;
69989;SDS011;57331;52.054;5.294;2022-09-30T09:49:50;11.95;;;7.45;;
69989;SDS011;57331;52.054;5.294;2022-09-30T09:55:25;12.95;;;6.10;;
69989;SDS011;57331;52.054;5.294;2022-09-30T09:58:06;10.88;;;6.40;;
69989;SDS011;57331;52.054;5.294;2022-09-30T10:00:35;11.63;;;6.07;;
69989;SDS011;57331;52.054;5.294;2022-09-30T10:03:13;10.05;;;5.80;;
69989;SDS011;57331;52.054;5.294;2022-09-30T10:08:36;10.95;;;5.40;;
69989;SDS011;57331;52.054;5.294;2022-09-30T10:11:23;9.73;;;6.20;;
69989;SDS011;57331;52.054;5.294;2022-09-30T10:13:56;12.15;;;5.43;;
69989;SDS011;57331;52.054;5.294;2022-09-30T10:16:31;11.23;;;6.07;;
69989;SDS011;57331;52.054;5.294;2022-09-30T10:19:04;11.33;;;5.43;;
69989;SDS011;57331;52.054;5.294;2022-09-30T10:21:46;11.35;;;6.05;;
69989;SDS011;57331;52.054;5.294;2022-09-30T10:24:23;8.80;;;4.78;;
69989;SDS011;57331;52.054;5.294;2022-09-30T10:26:56;11.00;;;4.75;;
69989;SDS011;57331;52.054;5.294;2022-09-30T10:29:33;9.00;;;4.50;;
69989;SDS011;57331;52.054;5.294;2022-09-30T10:32:02;8.53;;;3.67;;
69989;SDS011;57331;52.054;5.294;2022-09-30T10:34:37;8.15;;;4.13;;
69989;SDS011;57331;52.054;5.294;2022-09-30T10:37:08;7.20;;;3.75;;
69989;SDS011;57331;52.054;5.294;2022-09-30T10:39:42;7.53;;;4.25;;
69989;SDS011;57331;52.054;5.294;2022-09-30T10:42:21;9.52;;;4.30;;
69989;SDS011;57331;52.054;5.294;2022-09-30T10:44:56;10.23;;;4.27;;
69989;SDS011;57331;52.054;5.294;2022-09-30T10:47:27;7.97;;;4.07;;
69989;SDS011;57331;52.054;5.294;2022-09-30T10:50:03;8.02;;;3.67;;
69989;SDS011;57331;52.054;5.294;2022-09-30T10:52:38;8.20;;;3.58;;
69989;SDS011;57331;52.054;5.294;2022-09-30T10:57:45;6.43;;;3.23;;
69989;SDS011;57331;52.054;5.294;2022-09-30T11:00:19;5.68;;;2.85;;
69989;SDS011;57331;52.054;5.294;2022-09-30T11:02:55;7.60;;;3.50;;
69989;SDS011;57331;52.054;5.294;2022-09-30T11:05:32;7.07;;;3.30;;
69989;SDS011;57331;52.054;5.294;2022-09-30T11:08:02;5.68;;;2.80;;
69989;SDS011;57331;52.054;5.294;2022-09-30T11:11:01;5.60;;;2.67;;
69989;SDS011;57331;52.054;5.294;2022-09-30T11:13:43;6.53;;;2.90;;
69989;SDS011;57331;52.054;5.294;2022-09-30T11:16:55;5.88;;;3.20;;
69989;SDS011;57331;52.054;5.294;2022-09-30T11:22:30;7.13;;;3.67;;
69989;SDS011;57331;52.054;5.294;2022-09-30T11:25:16;6.83;;;3.63;;
69989;SDS011;57331;52.054;5.294;2022-09-30T11:30:39;5.80;;;3.10;;
69989;SDS011;57331;52.054;5.294;2022-09-30T11:38:31;6.93;;;2.97;;
69989;SDS011;57331;52.054;5.294;2022-09-30T11:46:59;7.13;;;3.10;;
69989;SDS011;57331;52.054;5.294;2022-09-30T11:58:05;5.45;;;3.10;;
69989;SDS011;57331;52.054;5.294;2022-09-30T12:00:57;9.10;;;3.47;;
69989;SDS011;57331;52.054;5.294;2022-09-30T12:03:41;9.02;;;3.50;;
69989;SDS011;57331;52.054;5.294;2022-09-30T12:06:17;6.73;;;3.53;;
69989;SDS011;57331;52.054;5.294;2022-09-30T12:09:07;8.75;;;3.08;;
69989;SDS011;57331;52.054;5.294;2022-09-30T12:12:03;5.80;;;3.50;;
69989;SDS011;57331;52.054;5.294;2022-09-30T12:14:44;5.28;;;2.80;;
69989;SDS011;57331;52.054;5.294;2022-09-30T12:20:36;5.27;;;2.70;;
69989;SDS011;57331;52.054;5.294;2022-09-30T12:23:12;6.20;;;3.00;;
69989;SDS011;57331;52.054;5.294;2022-09-30T12:28:33;5.70;;;3.15;;
69989;SDS011;57331;52.054;5.294;2022-09-30T12:37:19;5.32;;;2.72;;
69989;SDS011;57331;52.054;5.294;2022-09-30T12:40:03;5.57;;;3.38;;
69989;SDS011;57331;52.054;5.294;2022-09-30T12:48:04;7.17;;;3.37;;
69989;SDS011;57331;52.054;5.294;2022-09-30T12:50:40;15.38;;;8.45;;
69989;SDS011;57331;52.054;5.294;2022-09-30T12:53:17;6.75;;;3.95;;
69989;SDS011;57331;52.054;5.294;2022-09-30T12:55:49;7.80;;;4.50;;
69989;SDS011;57331;52.054;5.294;2022-09-30T13:01:07;8.20;;;4.73;;
69989;SDS011;57331;52.054;5.294;2022-09-30T13:04:37;13.70;;;4.82;;
69989;SDS011;57331;52.054;5.294;2022-09-30T13:09:36;9.57;;;4.85;;
69989;SDS011;57331;52.054;5.294;2022-09-30T13:12:43;11.00;;;5.35;;
69989;SDS011;57331;52.054;5.294;2022-09-30T13:15:21;9.60;;;5.20;;
69989;SDS011;57331;52.054;5.294;2022-09-30T13:18:01;8.70;;;4.57;;
69989;SDS011;57331;52.054;5.294;2022-09-30T13:20:53;9.00;;;4.72;;
69989;SDS011;57331;52.054;5.294;2022-09-30T13:28:52;7.67;;;3.90;;
69989;SDS011;57331;52.054;5.294;2022-09-30T13:34:23;6.45;;;3.50;;
69989;SDS011;57331;52.054;5.294;2022-09-30T13:36:57;6.43;;;3.33;;
69989;SDS011;57331;52.054;5.294;2022-09-30T13:39:28;6.45;;;3.22;;
69989;SDS011;57331;52.054;5.294;2022-09-30T13:42:03;6.43;;;3.10;;
69989;SDS011;57331;52.054;5.294;2022-09-30T13:47:14;5.00;;;2.60;;
69989;SDS011;57331;52.054;5.294;2022-09-30T13:50:02;6.22;;;3.08;;
69989;SDS011;57331;52.054;5.294;2022-09-30T13:52:36;4.07;;;2.00;;
69989;SDS011;57331;52.054;5.294;2022-09-30T13:57:54;7.53;;;2.30;;
69989;SDS011;57331;52.054;5.294;2022-09-30T14:00:50;5.53;;;2.22;;
69989;SDS011;57331;52.054;5.294;2022-09-30T14:12:10;5.93;;;2.80;;
69989;SDS011;57331;52.054;5.294;2022-09-30T14:20:53;5.88;;;2.88;;
69989;SDS011;57331;52.054;5.294;2022-09-30T14:23:16;7.30;;;3.17;;
69989;SDS011;57331;52.054;5.294;2022-09-30T14:25:56;6.78;;;3.05;;
69989;SDS011;57331;52.054;5.294;2022-09-30T14:28:54;6.00;;;2.80;;
69989;SDS011;57331;52.054;5.294;2022-09-30T14:31:44;9.10;;;3.08;;
69989;SDS011;57331;52.054;5.294;2022-09-30T14:34:12;7.13;;;3.30;;
69989;SDS011;57331;52.054;5.294;2022-09-30T14:36:41;7.07;;;3.10;;
69989;SDS011;57331;52.054;5.294;2022-09-30T14:39:14;8.05;;;3.40;;
69989;SDS011;57331;52.054;5.294;2022-09-30T14:41:50;9.55;;;3.50;;
69989;SDS011;57331;52.054;5.294;2022-09-30T14:44:21;9.32;;;3.80;;
69989;SDS011;57331;52.054;5.294;2022-09-30T14:46:50;10.13;;;4.55;;
69989;SDS011;57331;52.054;5.294;2022-09-30T14:49:22;6.27;;;3.30;;
69989;SDS011;57331;52.054;5.294;2022-09-30T14:51:59;10.05;;;3.80;;
69989;SDS011;57331;52.054;5.294;2022-09-30T14:54:31;6.20;;;3.70;;
69989;SDS011;57331;52.054;5.294;2022-09-30T14:56:59;7.40;;;4.22;;
69989;SDS011;57331;52.054;5.294;2022-09-30T14:59:29;6.18;;;3.30;;
69989;SDS011;57331;52.054;5.294;2022-09-30T15:02:19;5.83;;;2.90;;
69989;SDS011;57331;52.054;5.294;2022-09-30T15:04:52;9.57;;;3.50;;
69989;SDS011;57331;52.054;5.294;2022-09-30T15:07:26;6.32;;;3.25;;
69989;SDS011;57331;52.054;5.294;2022-09-30T15:09:53;7.97;;;3.58;;
69989;SDS011;57331;52.054;5.294;2022-09-30T15:12:26;7.38;;;3.90;;
69989;SDS011;57331;52.054;5.294;2022-09-30T15:14:54;8.40;;;3.83;;
69989;SDS011;57331;52.054;5.294;2022-09-30T15:19:49;9.45;;;4.10;;
69989;SDS011;57331;52.054;5.294;2022-09-30T15:22:16;10.13;;;3.78;;
69989;SDS011;57331;52.054;5.294;2022-09-30T15:24:45;8.60;;;4.18;;
69989;SDS011;57331;52.054;5.294;2022-09-30T15:27:15;8.63;;;3.80;;
69989;SDS011;57331;52.054;5.294;2022-09-30T15:30:38;10.07;;;3.30;;
69989;SDS011;57331;52.054;5.294;2022-09-30T15:32:55;7.80;;;4.10;;
69989;SDS011;57331;52.054;5.294;2022-09-30T15:35:27;8.85;;;4.05;;
69989;SDS011;57331;52.054;5.294;2022-09-30T15:38:04;8.93;;;4.20;;
69989;SDS011;57331;52.054;5.294;2022-09-30T15:40:55;8.37;;;3.97;;
69989;SDS011;57331;52.054;5.294;2022-09-30T15:43:29;6.78;;;3.90;;
69989;SDS011;57331;52.054;5.294;2022-09-30T15:46:38;7.32;;;3.88;;
69989;SDS011;57331;52.054;5.294;2022-09-30T15:49:05;10.45;;;4.60;;
69989;SDS011;57331;52.054;5.294;2022-09-30T15:52:18;7.82;;;3.70;;
69989;SDS011;57331;52.054;5.294;2022-09-30T15:54:46;6.87;;;3.83;;
69989;SDS011;57331;52.054;5.294;2022-09-30T15:57:35;8.25;;;4.00;;
69989;SDS011;57331;52.054;5.294;2022-09-30T16:00:05;8.88;;;4.45;;
69989;SDS011;57331;52.054;5.294;2022-09-30T16:02:34;9.88;;;4.30;;
69989;SDS011;57331;52.054;5.294;2022-09-30T16:05:01;8.27;;;4.25;;
69989;SDS011;57331;52.054;5.294;2022-09-30T16:07:29;8.47;;;3.93;;
69989;SDS011;57331;52.054;5.294;2022-09-30T16:09:57;6.90;;;4.00;;
69989;SDS011;57331;52.054;5.294;2022-09-30T16:12:26;8.23;;;4.55;;
69989;SDS011;57331;52.054;5.294;2022-09-30T16:15:05;7.82;;;3.90;;
69989;SDS011;57331;52.054;5.294;2022-09-30T16:17:43;8.77;;;3.85;;
69989;SDS011;57331;52.054;5.294;2022-09-30T16:27:36;10.00;;;4.20;;
69989;SDS011;57331;52.054;5.294;2022-09-30T16:30:04;9.38;;;4.40;;
69989;SDS011;57331;52.054;5.294;2022-09-30T16:32:36;8.47;;;4.27;;
69989;SDS011;57331;52.054;5.294;2022-09-30T16:35:12;9.20;;;4.13;;
69989;SDS011;57331;52.054;5.294;2022-09-30T16:37:45;9.45;;;4.32;;
69989;SDS011;57331;52.054;5.294;2022-09-30T16:40:18;7.43;;;4.13;;
69989;SDS011;57331;52.054;5.294;2022-09-30T16:42:50;8.80;;;4.25;;
69989;SDS011;57331;52.054;5.294;2022-09-30T16:45:20;8.47;;;4.03;;
69989;SDS011;57331;52.054;5.294;2022-09-30T16:47:48;8.48;;;4.22;;
69989;SDS011;57331;52.054;5.294;2022-09-30T16:52:57;7.75;;;4.10;;
69989;SDS011;57331;52.054;5.294;2022-09-30T16:55:25;9.50;;;4.15;;
69989;SDS011;57331;52.054;5.294;2022-09-30T16:57:53;9.97;;;4.73;;
69989;SDS011;57331;52.054;5.294;2022-09-30T17:00:26;9.25;;;4.75;;
69989;SDS011;57331;52.054;5.294;2022-09-30T17:02:54;9.57;;;5.15;;
69989;SDS011;57331;52.054;5.294;2022-09-30T17:05:21;11.95;;;5.30;;
69989;SDS011;57331;52.054;5.294;2022-09-30T17:07:54;9.52;;;5.13;;
69989;SDS011;57331;52.054;5.294;2022-09-30T17:10:27;9.80;;;5.17;;
69989;SDS011;57331;52.054;5.294;2022-09-30T17:12:57;9.60;;;5.30;;
69989;SDS011;57331;52.054;5.294;2022-09-30T17:15:29;10.23;;;5.50;;
69989;SDS011;57331;52.054;5.294;2022-09-30T17:17:58;8.32;;;5.15;;
69989;SDS011;57331;52.054;5.294;2022-09-30T17:20:25;9.63;;;5.50;;
69989;SDS011;57331;52.054;5.294;2022-09-30T17:22:52;10.10;;;5.80;;
69989;SDS011;57331;52.054;5.294;2022-09-30T17:25:19;11.45;;;6.28;;
69989;SDS011;57331;52.054;5.294;2022-09-30T17:27:47;10.23;;;6.45;;
69989;SDS011;57331;52.054;5.294;2022-09-30T17:30:15;10.05;;;5.43;;
69989;SDS011;57331;52.054;5.294;2022-09-30T17:32:43;10.15;;;5.80;;
69989;SDS011;57331;52.054;5.294;2022-09-30T17:35:10;9.20;;;4.93;;
69989;SDS011;57331;52.054;5.294;2022-09-30T17:37:38;9.52;;;5.85;;
69989;SDS011;57331;52.054;5.294;2022-09-30T17:40:10;14.10;;;8.13;;
69989;SDS011;57331;52.054;5.294;2022-09-30T17:43:16;12.63;;;6.22;;
69989;SDS011;57331;52.054;5.294;2022-09-30T17:45:43;12.68;;;6.28;;
69989;SDS011;57331;52.054;5.294;2022-09-30T17:48:12;10.87;;;5.40;;
69989;SDS011;57331;52.054;5.294;2022-09-30T17:50:42;10.70;;;4.90;;
69989;SDS011;57331;52.054;5.294;2022-09-30T17:53:12;11.30;;;5.45;;
69989;SDS011;57331;52.054;5.294;2022-09-30T17:55:43;8.65;;;4.72;;
69989;SDS011;57331;52.054;5.294;2022-09-30T17:58:15;9.80;;;4.43;;